createdAt,value
2018-05-11T00:01:45.134Z,10.90
2018-05-11T00:06:37.359Z,9.80
2018-05-11T00:11:28.863Z,7.80
2018-05-11T00:16:20.364Z,8.97
2018-05-11T00:21:11.907Z,11.37
2018-05-11T00:26:03.475Z,10.87
2018-05-11T00:30:54.987Z,12.97
2018-05-11T00:35:46.494Z,9.97
2018-05-11T00:40:38.020Z,10.27
2018-05-11T00:45:30.268Z,13.00
2018-05-11T00:50:22.495Z,12.67
2018-05-11T00:55:32.507Z,12.17
2018-05-11T01:00:24.008Z,11.03
2018-05-11T01:05:16.251Z,12.53
2018-05-11T01:10:07.747Z,12.03
2018-05-11T01:14:59.208Z,10.07
2018-05-11T01:19:50.769Z,9.47
2018-05-11T01:24:43.004Z,12.17
2018-05-11T01:29:34.515Z,13.83
2018-05-11T01:34:26.080Z,12.70
2018-05-11T01:39:18.374Z,11.73
2018-05-11T01:44:09.872Z,14.57
2018-05-11T01:49:02.121Z,14.47
2018-05-11T01:53:54.402Z,13.13
2018-05-11T01:58:45.931Z,12.90
2018-05-11T02:03:37.465Z,11.40
2018-05-11T02:08:29.016Z,17.40
2018-05-11T02:13:20.553Z,13.30
2018-05-11T02:18:12.065Z,10.93
2018-05-11T02:23:03.635Z,12.50
2018-05-11T02:27:55.161Z,11.17
2018-05-11T02:32:46.636Z,13.87
2018-05-11T02:37:38.907Z,13.10
2018-05-11T02:42:30.413Z,13.13
2018-05-11T02:47:21.896Z,13.77
2018-05-11T02:52:13.459Z,13.23
2018-05-11T02:57:04.973Z,14.60
2018-05-11T03:01:56.577Z,13.93
2018-05-11T03:06:49.129Z,15.17
2018-05-11T03:11:40.691Z,17.90
2018-05-11T03:16:32.207Z,12.40
2018-05-11T03:21:25.169Z,11.80
2018-05-11T03:26:17.443Z,13.40
2018-05-11T03:31:08.912Z,14.73
2018-05-11T03:36:00.416Z,13.80
2018-05-11T03:40:51.917Z,14.03
2018-05-11T03:45:44.150Z,13.60
2018-05-11T03:50:35.637Z,13.87
2018-05-11T03:55:27.162Z,13.60
2018-05-11T04:00:18.663Z,14.67
2018-05-11T04:05:29.583Z,12.53
2018-05-11T04:10:21.119Z,13.80
2018-05-11T04:15:12.643Z,18.40
2018-05-11T04:20:04.991Z,15.73
2018-05-11T04:24:56.478Z,14.47
2018-05-11T04:29:48.036Z,15.03
2018-05-11T04:34:40.376Z,14.27
2018-05-11T04:39:32.309Z,15.30
2018-05-11T04:44:23.792Z,18.33
2018-05-11T04:49:15.295Z,17.30
2018-05-11T04:54:07.556Z,15.00
2018-05-11T04:58:59.803Z,17.83
2018-05-11T05:03:52.092Z,18.53
2018-05-11T05:08:43.620Z,21.23
2018-05-11T05:13:35.131Z,12.80
2018-05-11T05:18:28.498Z,16.57
2018-05-11T05:23:20.815Z,12.30
2018-05-11T05:28:12.324Z,13.90
2018-05-11T05:33:03.901Z,15.67
2018-05-11T05:37:55.407Z,18.73
2018-05-11T05:42:46.950Z,15.93
2018-05-11T05:47:38.487Z,14.87
2018-05-11T05:52:30.008Z,14.87
2018-05-11T05:57:21.515Z,18.17
2018-05-11T06:02:13.048Z,18.40
2018-05-11T06:07:04.562Z,16.37
2018-05-11T06:11:56.816Z,15.27
2018-05-11T06:16:49.112Z,16.00
2018-05-11T06:21:40.604Z,17.93
2018-05-11T06:26:32.876Z,18.00
2018-05-11T06:31:24.424Z,16.37
2018-05-11T06:36:15.920Z,19.17
2018-05-11T06:41:08.163Z,17.03
2018-05-11T06:46:00.432Z,16.67
2018-05-11T06:50:52.733Z,15.70
2018-05-11T06:55:44.284Z,16.90
2018-05-11T07:00:35.813Z,17.13
2018-05-11T07:05:27.318Z,21.27
2018-05-11T07:10:18.825Z,19.33
2018-05-11T07:15:10.376Z,18.70
2018-05-11T07:20:01.908Z,18.97
2018-05-11T07:24:53.466Z,19.07
2018-05-11T07:29:44.993Z,19.23
2018-05-11T07:34:36.470Z,17.73
2018-05-11T07:39:28.830Z,20.20
2018-05-11T07:44:21.079Z,18.17
2018-05-11T07:49:13.361Z,17.33
2018-05-11T07:54:04.908Z,19.90
2018-05-11T07:58:56.415Z,15.87
2018-05-11T08:03:47.944Z,16.30
2018-05-11T08:08:40.387Z,14.87
2018-05-11T08:13:33.436Z,16.97
2018-05-11T08:18:25.750Z,16.03
2018-05-11T08:23:17.342Z,18.70
2018-05-11T08:28:09.575Z,15.60
2018-05-11T08:33:01.169Z,17.40
2018-05-11T08:37:52.756Z,15.77
2018-05-11T08:42:44.281Z,17.47
2018-05-11T08:47:35.823Z,15.17
2018-05-11T08:52:27.313Z,14.13
2018-05-11T08:57:18.839Z,17.23
2018-05-11T09:02:10.409Z,19.07
2018-05-11T09:07:02.041Z,14.60
2018-05-11T09:11:53.623Z,14.87
2018-05-11T09:16:45.845Z,12.60
2018-05-11T09:21:37.390Z,14.90
2018-05-11T09:26:28.939Z,14.37
2018-05-11T09:31:21.181Z,12.13
2018-05-11T09:36:13.464Z,12.93
2018-05-11T09:41:09.208Z,12.67
2018-05-11T09:46:00.779Z,11.50
2018-05-11T09:50:52.411Z,10.40
2018-05-11T09:55:43.983Z,12.47
2018-05-11T10:00:36.435Z,13.33
2018-05-11T10:05:27.990Z,12.00
2018-05-11T10:10:19.512Z,13.90
2018-05-11T10:15:12.575Z,11.53
2018-05-11T10:20:05.205Z,8.80
2018-05-11T10:24:56.694Z,7.87
2018-05-11T10:29:48.154Z,8.07
2018-05-11T10:34:39.675Z,10.80
2018-05-11T10:39:31.198Z,8.17
2018-05-11T10:44:22.705Z,8.30
2018-05-11T10:49:14.923Z,7.37
2018-05-11T10:54:06.442Z,8.00
2018-05-11T10:58:58.010Z,8.97
2018-05-11T11:03:50.239Z,8.70
2018-05-11T11:08:41.776Z,7.13
2018-05-11T11:13:33.308Z,8.87
2018-05-11T11:18:24.830Z,8.87
2018-05-11T11:23:16.314Z,7.43
2018-05-11T11:28:07.879Z,6.90
2018-05-11T11:32:59.414Z,7.47
2018-05-11T11:37:50.924Z,7.17
2018-05-11T11:42:42.535Z,8.03
2018-05-11T11:47:34.194Z,7.37
2018-05-11T11:52:25.659Z,6.00
2018-05-11T11:57:17.166Z,6.63
2018-05-11T12:02:08.669Z,6.03
2018-05-11T12:07:00.199Z,8.30
2018-05-11T12:11:51.685Z,5.40
2018-05-11T12:16:43.171Z,4.83
2018-05-11T12:21:35.403Z,4.20
2018-05-11T12:26:27.014Z,7.50
2018-05-11T12:31:18.471Z,3.67
2018-05-11T12:36:09.974Z,7.30
2018-05-11T12:41:01.535Z,6.50
2018-05-11T12:45:53.018Z,5.90
2018-05-11T12:50:44.526Z,5.17
2018-05-11T12:55:36.758Z,4.13
2018-05-11T13:00:29.033Z,4.80
2018-05-11T13:05:21.518Z,5.17
2018-05-11T13:10:13.025Z,4.53
2018-05-11T13:15:05.380Z,4.43
2018-05-11T13:19:57.792Z,3.50
2018-05-11T13:24:49.274Z,5.00
2018-05-11T13:29:41.470Z,3.07
2018-05-11T13:34:32.970Z,3.87
2018-05-11T13:39:24.484Z,3.40
2018-05-11T13:44:16.717Z,6.27
2018-05-11T13:49:08.211Z,5.43
2018-05-11T13:53:59.723Z,5.03
2018-05-11T13:58:51.233Z,3.93
2018-05-11T14:03:43.533Z,5.80
2018-05-11T14:08:35.033Z,3.50
2018-05-11T14:13:27.273Z,5.03
2018-05-11T14:18:19.535Z,5.43
2018-05-11T14:23:11.147Z,4.53
2018-05-11T14:28:03.417Z,7.00
2018-05-11T14:32:55.659Z,4.07
2018-05-11T14:37:47.907Z,6.37
2018-05-11T14:42:40.143Z,5.17
2018-05-11T14:47:31.644Z,7.13
2018-05-11T14:52:23.146Z,4.00
2018-05-11T14:57:14.672Z,3.83
2018-05-11T15:02:06.188Z,4.33
2018-05-11T15:06:57.713Z,8.23
2018-05-11T15:11:49.213Z,4.37
2018-05-11T15:16:40.709Z,3.60
2018-05-11T15:21:32.945Z,5.10
2018-05-11T15:26:25.175Z,6.10
2018-05-11T15:31:16.787Z,6.67
2018-05-11T15:36:08.218Z,5.10
2018-05-11T15:40:59.729Z,5.23
2018-05-11T15:45:51.238Z,4.43
2018-05-11T15:50:43.452Z,3.50
2018-05-11T15:55:34.964Z,5.50
2018-05-11T16:00:26.484Z,3.90
2018-05-11T16:05:18.029Z,3.83
2018-05-11T16:10:09.528Z,5.60
2018-05-11T16:15:01.795Z,2.93
2018-05-11T16:19:53.297Z,4.60
2018-05-11T16:24:45.535Z,4.03
2018-05-11T16:29:37.043Z,3.50
2018-05-11T16:34:28.577Z,6.17
2018-05-11T16:39:20.086Z,4.47
2018-05-11T16:44:11.554Z,3.37
2018-05-11T16:49:03.116Z,7.30
2018-05-11T16:53:55.413Z,3.53
2018-05-11T16:58:46.963Z,4.00
2018-05-11T17:03:38.851Z,2.67
2018-05-11T17:08:31.126Z,4.03
2018-05-11T17:13:22.640Z,5.87
2018-05-11T17:18:14.872Z,3.57
2018-05-11T17:23:06.431Z,5.00
2018-05-11T17:27:58.704Z,4.13
2018-05-11T17:32:50.243Z,3.00
2018-05-11T17:37:41.784Z,5.97
2018-05-11T17:42:33.318Z,2.97
2018-05-11T17:47:24.832Z,4.63
2018-05-11T17:52:16.335Z,6.90
2018-05-11T17:57:07.905Z,4.27
2018-05-11T18:01:59.415Z,6.80
2018-05-11T18:06:51.644Z,4.10
2018-05-11T18:11:43.130Z,5.20
2018-05-11T18:16:34.634Z,7.37
2018-05-11T18:21:26.937Z,4.80
2018-05-11T18:26:18.490Z,6.73
2018-05-11T18:31:10.024Z,5.70
2018-05-11T18:36:01.513Z,4.53
2018-05-11T18:40:53.005Z,3.53
2018-05-11T18:45:45.256Z,5.37
2018-05-11T18:50:36.757Z,5.70
2018-05-11T18:55:28.296Z,5.00
2018-05-11T19:00:20.545Z,4.40
2018-05-11T19:05:12.041Z,6.00
2018-05-11T19:10:03.621Z,5.97
2018-05-11T19:14:55.106Z,5.90
2018-05-11T19:19:46.629Z,8.07
2018-05-11T19:24:38.873Z,5.30
2018-05-11T19:29:31.137Z,8.50
2018-05-11T19:34:23.383Z,7.77
2018-05-11T19:39:15.638Z,6.70
2018-05-11T19:44:07.935Z,6.23
2018-05-11T19:48:59.704Z,6.30
2018-05-11T19:53:51.211Z,7.53
2018-05-11T19:58:42.707Z,5.70
2018-05-11T20:03:34.388Z,8.10
2018-05-11T20:08:25.904Z,10.47
2018-05-11T20:13:17.440Z,32.93
2018-05-11T20:18:08.964Z,23.53
2018-05-11T20:23:00.476Z,17.03
2018-05-11T20:27:51.988Z,12.37
2018-05-11T20:32:44.278Z,5.33
2018-05-11T20:37:35.779Z,12.60
2018-05-11T20:42:27.990Z,5.43
2018-05-11T20:47:19.488Z,6.37
2018-05-11T20:52:10.977Z,7.43
2018-05-11T20:57:02.515Z,6.13
2018-05-11T21:01:54.027Z,4.67
2018-05-11T21:06:45.565Z,7.33
2018-05-11T21:11:37.938Z,7.13
2018-05-11T21:16:29.447Z,5.10
2018-05-11T21:21:20.997Z,5.83
2018-05-11T21:26:12.485Z,6.17
2018-05-11T21:31:04.013Z,9.17
2018-05-11T21:35:55.524Z,9.60
2018-05-11T21:40:47.784Z,11.43
2018-05-11T21:45:40.029Z,8.30
2018-05-11T21:50:32.330Z,7.80
2018-05-11T21:55:23.783Z,8.93
2018-05-11T22:00:15.314Z,9.97
2018-05-11T22:05:06.801Z,7.93
2018-05-11T22:09:58.327Z,6.20
2018-05-11T22:14:50.389Z,5.73
2018-05-11T22:19:41.894Z,7.13
2018-05-11T22:24:34.161Z,4.67
2018-05-11T22:29:25.680Z,6.63
2018-05-11T22:34:17.906Z,6.67
2018-05-11T22:39:09.537Z,7.60
2018-05-11T22:44:01.063Z,7.17
2018-05-11T22:48:52.677Z,6.37
2018-05-11T22:53:44.222Z,7.67
2018-05-11T22:58:35.757Z,7.30
2018-05-11T23:03:27.273Z,5.87
2018-05-11T23:08:19.645Z,9.30
2018-05-11T23:13:11.192Z,6.07
2018-05-11T23:18:02.722Z,6.40
2018-05-11T23:22:54.226Z,5.53
2018-05-11T23:27:45.789Z,7.07
2018-05-11T23:32:37.427Z,8.47
2018-05-11T23:37:28.936Z,6.70
2018-05-11T23:42:20.433Z,5.80
2018-05-11T23:47:12.704Z,6.87
2018-05-11T23:52:04.225Z,6.03
2018-05-11T23:56:56.478Z,6.20
